sensor_id;sensor_type;location;lat;lon;timestamp;temperature;humidity
30379;DHT22;17168;49.164;9.060;2023-08-07T00:01:45;12.90;99.90
30379;DHT22;17168;49.164;9.060;2023-08-07T00:04:17;12.90;99.90
30379;DHT22;17168;49.164;9.060;2023-08-07T00:06:52;12.90;99.90
30379;DHT22;17168;49.164;9.060;2023-08-07T00:09:24;12.80;99.90
30379;DHT22;17168;49.164;9.060;2023-08-07T00:11:57;12.80;99.90
30379;DHT22;17168;49.164;9.060;2023-08-07T00:14:29;12.90;99.90
30379;DHT22;17168;49.164;9.060;2023-08-07T00:17:02;12.80;99.90
30379;DHT22;17168;49.164;9.060;2023-08-07T00:19:34;12.90;99.90
30379;DHT22;17168;49.164;9.060;2023-08-07T00:22:09;12.90;99.90
30379;DHT22;17168;49.164;9.060;2023-08-07T00:24:42;12.80;99.90
30379;DHT22;17168;49.164;9.060;2023-08-07T00:27:14;12.90;99.90
30379;DHT22;17168;49.164;9.060;2023-08-07T00:29:47;12.80;99.90
30379;DHT22;17168;49.164;9.060;2023-08-07T00:32:19;12.90;99.90
30379;DHT22;17168;49.164;9.060;2023-08-07T00:34:51;12.90;99.90
30379;DHT22;17168;49.164;9.060;2023-08-07T00:37:26;12.90;99.90
30379;DHT22;17168;49.164;9.060;2023-08-07T00:39:59;12.90;99.90
30379;DHT22;17168;49.164;9.060;2023-08-07T00:42:31;12.90;99.90
30379;DHT22;17168;49.164;9.060;2023-08-07T00:45:04;12.90;99.90
30379;DHT22;17168;49.164;9.060;2023-08-07T00:47:37;12.90;99.90
30379;DHT22;17168;49.164;9.060;2023-08-07T00:50:13;12.90;99.90
30379;DHT22;17168;49.164;9.060;2023-08-07T00:52:48;12.90;99.90
30379;DHT22;17168;49.164;9.060;2023-08-07T00:55:20;12.90;99.90
30379;DHT22;17168;49.164;9.060;2023-08-07T00:57:53;12.90;99.90
30379;DHT22;17168;49.164;9.060;2023-08-07T01:00:26;12.90;99.90
30379;DHT22;17168;49.164;9.060;2023-08-07T01:02:59;12.90;99.90
30379;DHT22;17168;49.164;9.060;2023-08-07T01:05:32;12.90;99.90
30379;DHT22;17168;49.164;9.060;2023-08-07T01:08:08;12.90;99.90
30379;DHT22;17168;49.164;9.060;2023-08-07T01:11:07;12.90;99.90
30379;DHT22;17168;49.164;9.060;2023-08-07T01:13:46;12.90;99.90
30379;DHT22;17168;49.164;9.060;2023-08-07T01:16:26;12.90;99.90
30379;DHT22;17168;49.164;9.060;2023-08-07T01:19:00;12.90;99.90
30379;DHT22;17168;49.164;9.060;2023-08-07T01:21:34;12.90;99.90
30379;DHT22;17168;49.164;9.060;2023-08-07T01:24:09;12.80;99.90
30379;DHT22;17168;49.164;9.060;2023-08-07T01:26:43;12.80;99.90
30379;DHT22;17168;49.164;9.060;2023-08-07T01:29:22;12.80;99.90
30379;DHT22;17168;49.164;9.060;2023-08-07T01:32:00;12.80;99.90
30379;DHT22;17168;49.164;9.060;2023-08-07T01:34:39;12.80;99.90
30379;DHT22;17168;49.164;9.060;2023-08-07T01:37:13;12.80;99.90
30379;DHT22;17168;49.164;9.060;2023-08-07T01:39:49;12.80;99.90
30379;DHT22;17168;49.164;9.060;2023-08-07T01:42:21;12.70;99.90
30379;DHT22;17168;49.164;9.060;2023-08-07T01:44:54;12.70;99.90
30379;DHT22;17168;49.164;9.060;2023-08-07T01:47:26;12.80;99.90
30379;DHT22;17168;49.164;9.060;2023-08-07T01:49:58;12.70;99.90
30379;DHT22;17168;49.164;9.060;2023-08-07T01:52:32;12.70;99.90
30379;DHT22;17168;49.164;9.060;2023-08-07T01:55:08;12.70;99.90
30379;DHT22;17168;49.164;9.060;2023-08-07T01:57:40;12.70;99.90
30379;DHT22;17168;49.164;9.060;2023-08-07T02:00:13;12.70;99.90
30379;DHT22;17168;49.164;9.060;2023-08-07T02:02:45;12.70;99.90
30379;DHT22;17168;49.164;9.060;2023-08-07T02:05:19;12.70;99.90
30379;DHT22;17168;49.164;9.060;2023-08-07T02:07:51;12.60;99.90
30379;DHT22;17168;49.164;9.060;2023-08-07T02:10:26;12.60;99.90
30379;DHT22;17168;49.164;9.060;2023-08-07T02:12:59;12.60;99.90
30379;DHT22;17168;49.164;9.060;2023-08-07T02:15:31;12.60;99.90
30379;DHT22;17168;49.164;9.060;2023-08-07T02:18:03;12.50;99.90
30379;DHT22;17168;49.164;9.060;2023-08-07T02:20:36;12.50;99.90
30379;DHT22;17168;49.164;9.060;2023-08-07T02:23:08;12.50;99.90
30379;DHT22;17168;49.164;9.060;2023-08-07T02:25:43;12.50;99.90
30379;DHT22;17168;49.164;9.060;2023-08-07T02:28:17;12.50;99.90
30379;DHT22;17168;49.164;9.060;2023-08-07T02:30:49;12.50;99.90
30379;DHT22;17168;49.164;9.060;2023-08-07T02:33:23;12.50;99.90
30379;DHT22;17168;49.164;9.060;2023-08-07T02:35:55;12.50;99.90
30379;DHT22;17168;49.164;9.060;2023-08-07T02:38:27;12.50;99.90
30379;DHT22;17168;49.164;9.060;2023-08-07T02:41:02;12.50;99.90
30379;DHT22;17168;49.164;9.060;2023-08-07T02:43:35;12.50;99.90
30379;DHT22;17168;49.164;9.060;2023-08-07T02:46:08;12.50;99.90
30379;DHT22;17168;49.164;9.060;2023-08-07T02:48:40;12.50;99.90
30379;DHT22;17168;49.164;9.060;2023-08-07T02:51:12;12.50;99.90
30379;DHT22;17168;49.164;9.060;2023-08-07T02:53:45;12.50;99.90
30379;DHT22;17168;49.164;9.060;2023-08-07T02:56:19;12.50;99.90
30379;DHT22;17168;49.164;9.060;2023-08-07T02:58:52;12.50;99.90
30379;DHT22;17168;49.164;9.060;2023-08-07T03:01:24;12.50;99.90
30379;DHT22;17168;49.164;9.060;2023-08-07T03:03:56;12.50;99.90
30379;DHT22;17168;49.164;9.060;2023-08-07T03:06:28;12.50;99.90
30379;DHT22;17168;49.164;9.060;2023-08-07T03:09:01;12.50;99.90
30379;DHT22;17168;49.164;9.060;2023-08-07T03:11:35;12.50;99.90
30379;DHT22;17168;49.164;9.060;2023-08-07T03:14:08;12.50;99.90
30379;DHT22;17168;49.164;9.060;2023-08-07T03:16:40;12.60;99.90
30379;DHT22;17168;49.164;9.060;2023-08-07T03:19:12;12.60;99.90
30379;DHT22;17168;49.164;9.060;2023-08-07T03:21:44;12.60;99.90
30379;DHT22;17168;49.164;9.060;2023-08-07T03:24:16;12.50;99.90
30379;DHT22;17168;49.164;9.060;2023-08-07T03:26:51;12.60;99.90
30379;DHT22;17168;49.164;9.060;2023-08-07T03:29:24;12.60;99.90
30379;DHT22;17168;49.164;9.060;2023-08-07T03:31:56;12.60;99.90
30379;DHT22;17168;49.164;9.060;2023-08-07T03:34:29;12.60;99.90
30379;DHT22;17168;49.164;9.060;2023-08-07T03:37:01;12.60;99.90
30379;DHT22;17168;49.164;9.060;2023-08-07T03:39:33;12.60;99.90
30379;DHT22;17168;49.164;9.060;2023-08-07T03:42:08;12.60;99.90
30379;DHT22;17168;49.164;9.060;2023-08-07T03:44:41;12.60;99.90
30379;DHT22;17168;49.164;9.060;2023-08-07T03:47:13;12.60;99.90
30379;DHT22;17168;49.164;9.060;2023-08-07T03:49:46;12.60;99.90
30379;DHT22;17168;49.164;9.060;2023-08-07T03:52:18;12.60;99.90
30379;DHT22;17168;49.164;9.060;2023-08-07T03:54:50;12.60;99.90
30379;DHT22;17168;49.164;9.060;2023-08-07T03:57:25;12.60;99.90
30379;DHT22;17168;49.164;9.060;2023-08-07T03:59:57;12.60;99.90
30379;DHT22;17168;49.164;9.060;2023-08-07T04:02:30;12.60;99.90
30379;DHT22;17168;49.164;9.060;2023-08-07T04:05:02;12.60;99.90
30379;DHT22;17168;49.164;9.060;2023-08-07T04:07:34;12.60;99.90
30379;DHT22;17168;49.164;9.060;2023-08-07T04:10:07;12.50;99.90
30379;DHT22;17168;49.164;9.060;2023-08-07T04:12:42;12.50;99.90
30379;DHT22;17168;49.164;9.060;2023-08-07T04:15:14;12.50;99.90
30379;DHT22;17168;49.164;9.060;2023-08-07T04:17:46;12.50;99.90
30379;DHT22;17168;49.164;9.060;2023-08-07T04:20:21;12.40;99.90
30379;DHT22;17168;49.164;9.060;2023-08-07T04:22:54;12.40;99.90
30379;DHT22;17168;49.164;9.060;2023-08-07T04:25:26;12.40;99.90
30379;DHT22;17168;49.164;9.060;2023-08-07T04:28:01;12.40;99.90
30379;DHT22;17168;49.164;9.060;2023-08-07T04:30:33;12.40;99.90
30379;DHT22;17168;49.164;9.060;2023-08-07T04:33:06;12.40;99.90
30379;DHT22;17168;49.164;9.060;2023-08-07T04:35:41;12.40;99.90
30379;DHT22;17168;49.164;9.060;2023-08-07T04:38:13;12.30;99.90
30379;DHT22;17168;49.164;9.060;2023-08-07T04:40:45;12.30;99.90
30379;DHT22;17168;49.164;9.060;2023-08-07T04:43:21;12.30;99.90
30379;DHT22;17168;49.164;9.060;2023-08-07T04:45:53;12.30;99.90
30379;DHT22;17168;49.164;9.060;2023-08-07T04:48:25;12.30;99.90
30379;DHT22;17168;49.164;9.060;2023-08-07T04:50:58;12.30;99.90
30379;DHT22;17168;49.164;9.060;2023-08-07T04:53:30;12.30;99.90
30379;DHT22;17168;49.164;9.060;2023-08-07T04:56:03;12.30;99.90
30379;DHT22;17168;49.164;9.060;2023-08-07T04:58:40;12.30;99.90
30379;DHT22;17168;49.164;9.060;2023-08-07T05:01:12;12.30;99.90
30379;DHT22;17168;49.164;9.060;2023-08-07T05:03:44;12.30;99.90
30379;DHT22;17168;49.164;9.060;2023-08-07T05:06:19;12.30;99.90
30379;DHT22;17168;49.164;9.060;2023-08-07T05:08:52;12.30;99.90
30379;DHT22;17168;49.164;9.060;2023-08-07T05:11:24;12.30;99.90
30379;DHT22;17168;49.164;9.060;2023-08-07T05:13:59;12.30;99.90
30379;DHT22;17168;49.164;9.060;2023-08-07T05:16:31;12.30;99.90
30379;DHT22;17168;49.164;9.060;2023-08-07T05:19:06;12.30;99.90
30379;DHT22;17168;49.164;9.060;2023-08-07T05:21:38;12.30;99.90
30379;DHT22;17168;49.164;9.060;2023-08-07T05:24:10;12.30;99.90
30379;DHT22;17168;49.164;9.060;2023-08-07T05:26:44;12.30;99.90
30379;DHT22;17168;49.164;9.060;2023-08-07T05:29:19;12.30;99.90
30379;DHT22;17168;49.164;9.060;2023-08-07T05:31:51;12.30;99.90
30379;DHT22;17168;49.164;9.060;2023-08-07T05:34:23;12.30;99.90
30379;DHT22;17168;49.164;9.060;2023-08-07T05:36:55;12.30;99.90
30379;DHT22;17168;49.164;9.060;2023-08-07T05:39:27;12.30;99.90
30379;DHT22;17168;49.164;9.060;2023-08-07T05:42:01;12.40;99.90
30379;DHT22;17168;49.164;9.060;2023-08-07T05:44:36;12.40;99.90
30379;DHT22;17168;49.164;9.060;2023-08-07T05:47:08;12.40;99.90
30379;DHT22;17168;49.164;9.060;2023-08-07T05:49:40;12.50;99.90
30379;DHT22;17168;49.164;9.060;2023-08-07T05:52:14;12.50;99.90
30379;DHT22;17168;49.164;9.060;2023-08-07T05:54:46;12.50;99.90
30379;DHT22;17168;49.164;9.060;2023-08-07T05:57:19;12.50;99.90
30379;DHT22;17168;49.164;9.060;2023-08-07T05:59:54;12.60;99.90
30379;DHT22;17168;49.164;9.060;2023-08-07T06:02:26;12.60;99.90
30379;DHT22;17168;49.164;9.060;2023-08-07T06:04:59;12.70;99.90
30379;DHT22;17168;49.164;9.060;2023-08-07T06:07:32;12.70;99.90
30379;DHT22;17168;49.164;9.060;2023-08-07T06:10:06;12.70;99.90
30379;DHT22;17168;49.164;9.060;2023-08-07T06:12:38;12.70;99.90
30379;DHT22;17168;49.164;9.060;2023-08-07T06:15:13;12.70;99.90
30379;DHT22;17168;49.164;9.060;2023-08-07T06:17:46;12.80;99.90
30379;DHT22;17168;49.164;9.060;2023-08-07T06:20:18;12.80;99.90
30379;DHT22;17168;49.164;9.060;2023-08-07T06:22:50;12.80;99.90
30379;DHT22;17168;49.164;9.060;2023-08-07T06:25:23;12.90;99.90
30379;DHT22;17168;49.164;9.060;2023-08-07T06:27:55;12.80;99.90
30379;DHT22;17168;49.164;9.060;2023-08-07T06:30:31;12.80;99.90
30379;DHT22;17168;49.164;9.060;2023-08-07T06:33:03;12.90;99.90
30379;DHT22;17168;49.164;9.060;2023-08-07T06:35:37;12.90;99.90
30379;DHT22;17168;49.164;9.060;2023-08-07T06:38:10;12.90;99.90
30379;DHT22;17168;49.164;9.060;2023-08-07T06:40:42;12.90;99.90
30379;DHT22;17168;49.164;9.060;2023-08-07T06:43:16;12.90;99.90
30379;DHT22;17168;49.164;9.060;2023-08-07T06:45:51;12.90;99.90
30379;DHT22;17168;49.164;9.060;2023-08-07T06:48:24;13.00;99.90
30379;DHT22;17168;49.164;9.060;2023-08-07T06:50:56;13.00;99.90
30379;DHT22;17168;49.164;9.060;2023-08-07T06:53:28;13.00;99.90
30379;DHT22;17168;49.164;9.060;2023-08-07T06:56:00;13.10;99.90
30379;DHT22;17168;49.164;9.060;2023-08-07T06:58:32;13.10;99.90
30379;DHT22;17168;49.164;9.060;2023-08-07T07:01:07;13.10;99.90
30379;DHT22;17168;49.164;9.060;2023-08-07T07:03:39;13.20;99.90
30379;DHT22;17168;49.164;9.060;2023-08-07T07:06:11;13.20;99.90
30379;DHT22;17168;49.164;9.060;2023-08-07T07:08:44;13.20;99.90
30379;DHT22;17168;49.164;9.060;2023-08-07T07:11:16;13.30;99.90
30379;DHT22;17168;49.164;9.060;2023-08-07T07:13:52;13.30;99.90
30379;DHT22;17168;49.164;9.060;2023-08-07T07:16:27;13.30;99.90
30379;DHT22;17168;49.164;9.060;2023-08-07T07:19:02;13.30;99.90
30379;DHT22;17168;49.164;9.060;2023-08-07T07:21:34;13.30;99.90
30379;DHT22;17168;49.164;9.060;2023-08-07T07:24:06;13.30;99.90
30379;DHT22;17168;49.164;9.060;2023-08-07T07:26:38;13.40;99.90
30379;DHT22;17168;49.164;9.060;2023-08-07T07:29:11;13.40;99.90
30379;DHT22;17168;49.164;9.060;2023-08-07T07:31:45;13.40;99.90
30379;DHT22;17168;49.164;9.060;2023-08-07T07:34:19;13.40;99.90
30379;DHT22;17168;49.164;9.060;2023-08-07T07:36:51;13.40;99.90
30379;DHT22;17168;49.164;9.060;2023-08-07T07:39:25;13.40;99.90
30379;DHT22;17168;49.164;9.060;2023-08-07T07:41:57;13.40;99.90
30379;DHT22;17168;49.164;9.060;2023-08-07T07:44:30;13.40;99.90
30379;DHT22;17168;49.164;9.060;2023-08-07T07:47:05;13.40;99.90
30379;DHT22;17168;49.164;9.060;2023-08-07T07:49:38;13.40;99.90
30379;DHT22;17168;49.164;9.060;2023-08-07T07:52:10;13.40;99.90
30379;DHT22;17168;49.164;9.060;2023-08-07T07:54:42;13.40;99.90
30379;DHT22;17168;49.164;9.060;2023-08-07T07:57:14;13.50;99.90
30379;DHT22;17168;49.164;9.060;2023-08-07T07:59:46;13.50;99.90
30379;DHT22;17168;49.164;9.060;2023-08-07T08:02:21;13.50;99.90
30379;DHT22;17168;49.164;9.060;2023-08-07T08:04:56;13.50;99.90
30379;DHT22;17168;49.164;9.060;2023-08-07T08:07:28;13.50;99.90
30379;DHT22;17168;49.164;9.060;2023-08-07T08:10:00;13.60;99.90
30379;DHT22;17168;49.164;9.060;2023-08-07T08:12:32;13.60;99.90
30379;DHT22;17168;49.164;9.060;2023-08-07T08:15:13;13.60;99.90
30379;DHT22;17168;49.164;9.060;2023-08-07T08:17:48;13.60;99.90
30379;DHT22;17168;49.164;9.060;2023-08-07T08:20:20;13.60;99.90
30379;DHT22;17168;49.164;9.060;2023-08-07T08:22:53;13.70;99.90
30379;DHT22;17168;49.164;9.060;2023-08-07T08:25:25;13.70;99.90
30379;DHT22;17168;49.164;9.060;2023-08-07T08:27:58;13.70;99.90
30379;DHT22;17168;49.164;9.060;2023-08-07T08:30:30;13.80;99.90
30379;DHT22;17168;49.164;9.060;2023-08-07T08:33:05;13.80;99.90
30379;DHT22;17168;49.164;9.060;2023-08-07T08:35:38;13.90;99.90
30379;DHT22;17168;49.164;9.060;2023-08-07T08:38:10;13.90;99.90
30379;DHT22;17168;49.164;9.060;2023-08-07T08:40:44;13.90;99.90
30379;DHT22;17168;49.164;9.060;2023-08-07T08:43:17;14.00;99.90
30379;DHT22;17168;49.164;9.060;2023-08-07T08:45:50;14.00;99.90
30379;DHT22;17168;49.164;9.060;2023-08-07T08:48:25;14.00;99.90
30379;DHT22;17168;49.164;9.060;2023-08-07T08:50:59;14.10;99.90
30379;DHT22;17168;49.164;9.060;2023-08-07T08:53:32;14.10;99.90
30379;DHT22;17168;49.164;9.060;2023-08-07T08:56:06;14.20;99.90
30379;DHT22;17168;49.164;9.060;2023-08-07T08:58:39;14.20;99.90
30379;DHT22;17168;49.164;9.060;2023-08-07T09:01:12;14.30;99.90
30379;DHT22;17168;49.164;9.060;2023-08-07T09:03:47;14.30;99.90
30379;DHT22;17168;49.164;9.060;2023-08-07T09:06:20;14.40;99.90
30379;DHT22;17168;49.164;9.060;2023-08-07T09:08:56;14.40;99.90
30379;DHT22;17168;49.164;9.060;2023-08-07T09:11:29;14.50;99.90
30379;DHT22;17168;49.164;9.060;2023-08-07T09:14:02;14.50;99.90
30379;DHT22;17168;49.164;9.060;2023-08-07T09:16:35;14.50;99.90
30379;DHT22;17168;49.164;9.060;2023-08-07T09:19:11;14.60;99.90
30379;DHT22;17168;49.164;9.060;2023-08-07T09:21:43;14.60;99.90
30379;DHT22;17168;49.164;9.060;2023-08-07T09:24:15;14.60;99.90
30379;DHT22;17168;49.164;9.060;2023-08-07T09:26:53;14.60;99.90
30379;DHT22;17168;49.164;9.060;2023-08-07T09:29:27;14.70;99.90
30379;DHT22;17168;49.164;9.060;2023-08-07T09:32:06;14.70;99.90
30379;DHT22;17168;49.164;9.060;2023-08-07T09:34:42;14.70;99.50
30379;DHT22;17168;49.164;9.060;2023-08-07T09:37:15;14.70;98.40
30379;DHT22;17168;49.164;9.060;2023-08-07T09:39:47;14.70;98.50
30379;DHT22;17168;49.164;9.060;2023-08-07T09:42:19;14.80;97.90
30379;DHT22;17168;49.164;9.060;2023-08-07T09:44:52;14.80;98.30
30379;DHT22;17168;49.164;9.060;2023-08-07T09:47:24;14.90;96.00
30379;DHT22;17168;49.164;9.060;2023-08-07T09:49:59;14.90;96.10
30379;DHT22;17168;49.164;9.060;2023-08-07T09:52:31;14.90;94.70
30379;DHT22;17168;49.164;9.060;2023-08-07T09:55:04;15.00;94.40
30379;DHT22;17168;49.164;9.060;2023-08-07T09:57:37;15.00;94.00
30379;DHT22;17168;49.164;9.060;2023-08-07T10:00:11;15.10;94.00
30379;DHT22;17168;49.164;9.060;2023-08-07T10:02:44;15.10;95.00
30379;DHT22;17168;49.164;9.060;2023-08-07T10:05:19;15.20;94.60
30379;DHT22;17168;49.164;9.060;2023-08-07T10:07:52;15.20;94.40
30379;DHT22;17168;49.164;9.060;2023-08-07T10:10:26;15.30;95.00
30379;DHT22;17168;49.164;9.060;2023-08-07T10:13:00;15.40;94.70
30379;DHT22;17168;49.164;9.060;2023-08-07T10:15:33;15.40;93.60
30379;DHT22;17168;49.164;9.060;2023-08-07T10:18:06;15.50;93.20
30379;DHT22;17168;49.164;9.060;2023-08-07T10:20:41;15.50;92.20
30379;DHT22;17168;49.164;9.060;2023-08-07T10:23:14;15.50;92.40
30379;DHT22;17168;49.164;9.060;2023-08-07T10:25:50;15.60;92.60
30379;DHT22;17168;49.164;9.060;2023-08-07T10:28:24;15.60;92.40
30379;DHT22;17168;49.164;9.060;2023-08-07T10:31:01;15.70;92.90
30379;DHT22;17168;49.164;9.060;2023-08-07T10:33:33;15.70;93.20
30379;DHT22;17168;49.164;9.060;2023-08-07T10:36:11;15.80;92.50
30379;DHT22;17168;49.164;9.060;2023-08-07T10:38:44;15.90;91.50
30379;DHT22;17168;49.164;9.060;2023-08-07T10:41:18;16.00;90.20
30379;DHT22;17168;49.164;9.060;2023-08-07T10:43:50;16.00;91.20
30379;DHT22;17168;49.164;9.060;2023-08-07T10:46:22;16.00;90.70
30379;DHT22;17168;49.164;9.060;2023-08-07T10:48:56;16.00;90.90
30379;DHT22;17168;49.164;9.060;2023-08-07T10:51:32;16.00;91.70
30379;DHT22;17168;49.164;9.060;2023-08-07T10:54:04;16.00;91.80
30379;DHT22;17168;49.164;9.060;2023-08-07T10:56:36;16.00;91.80
30379;DHT22;17168;49.164;9.060;2023-08-07T10:59:10;16.00;92.60
30379;DHT22;17168;49.164;9.060;2023-08-07T11:01:43;16.00;92.20
30379;DHT22;17168;49.164;9.060;2023-08-07T11:04:16;16.00;92.30
30379;DHT22;17168;49.164;9.060;2023-08-07T11:06:51;16.00;92.90
30379;DHT22;17168;49.164;9.060;2023-08-07T11:09:23;16.10;93.70
30379;DHT22;17168;49.164;9.060;2023-08-07T11:11:55;16.20;94.20
30379;DHT22;17168;49.164;9.060;2023-08-07T11:14:27;16.30;93.70
30379;DHT22;17168;49.164;9.060;2023-08-07T11:16:59;16.40;90.60
30379;DHT22;17168;49.164;9.060;2023-08-07T11:19:33;16.40;92.00
30379;DHT22;17168;49.164;9.060;2023-08-07T11:22:08;16.50;92.50
30379;DHT22;17168;49.164;9.060;2023-08-07T11:24:40;16.60;92.10
30379;DHT22;17168;49.164;9.060;2023-08-07T11:27:13;16.60;90.60
30379;DHT22;17168;49.164;9.060;2023-08-07T11:29:47;16.70;91.80
30379;DHT22;17168;49.164;9.060;2023-08-07T11:32:21;16.80;90.80
30379;DHT22;17168;49.164;9.060;2023-08-07T11:34:53;16.90;90.90
30379;DHT22;17168;49.164;9.060;2023-08-07T11:37:28;17.00;89.60
30379;DHT22;17168;49.164;9.060;2023-08-07T11:40:01;17.00;88.80
30379;DHT22;17168;49.164;9.060;2023-08-07T11:42:34;17.10;87.20
30379;DHT22;17168;49.164;9.060;2023-08-07T11:45:14;17.10;86.10
30379;DHT22;17168;49.164;9.060;2023-08-07T11:47:53;17.10;85.90
30379;DHT22;17168;49.164;9.060;2023-08-07T11:50:29;17.00;85.00
30379;DHT22;17168;49.164;9.060;2023-08-07T11:53:04;17.00;85.20
30379;DHT22;17168;49.164;9.060;2023-08-07T11:55:37;16.90;85.90
30379;DHT22;17168;49.164;9.060;2023-08-07T11:58:21;16.90;88.10
30379;DHT22;17168;49.164;9.060;2023-08-07T12:00:53;16.90;87.00
30379;DHT22;17168;49.164;9.060;2023-08-07T12:03:28;16.70;88.00
30379;DHT22;17168;49.164;9.060;2023-08-07T12:06:03;16.60;89.00
30379;DHT22;17168;49.164;9.060;2023-08-07T12:08:39;16.60;89.20
30379;DHT22;17168;49.164;9.060;2023-08-07T12:11:13;16.50;88.90
30379;DHT22;17168;49.164;9.060;2023-08-07T12:13:48;16.50;89.30
30379;DHT22;17168;49.164;9.060;2023-08-07T12:16:21;16.40;90.60
30379;DHT22;17168;49.164;9.060;2023-08-07T12:18:53;16.30;91.80
30379;DHT22;17168;49.164;9.060;2023-08-07T12:21:27;16.20;93.30
30379;DHT22;17168;49.164;9.060;2023-08-07T12:24:11;16.00;96.10
30379;DHT22;17168;49.164;9.060;2023-08-07T12:26:45;15.90;99.10
30379;DHT22;17168;49.164;9.060;2023-08-07T12:29:17;15.80;99.90
30379;DHT22;17168;49.164;9.060;2023-08-07T12:31:49;15.70;99.90
30379;DHT22;17168;49.164;9.060;2023-08-07T12:34:22;15.60;99.90
30379;DHT22;17168;49.164;9.060;2023-08-07T12:36:57;15.50;99.90
30379;DHT22;17168;49.164;9.060;2023-08-07T12:39:32;15.40;99.90
30379;DHT22;17168;49.164;9.060;2023-08-07T12:42:08;15.40;99.90
30379;DHT22;17168;49.164;9.060;2023-08-07T12:44:43;15.40;99.90
30379;DHT22;17168;49.164;9.060;2023-08-07T12:47:18;15.40;99.90
30379;DHT22;17168;49.164;9.060;2023-08-07T12:49:50;15.50;99.90
30379;DHT22;17168;49.164;9.060;2023-08-07T12:52:24;15.60;99.90
30379;DHT22;17168;49.164;9.060;2023-08-07T12:54:59;15.70;99.90
30379;DHT22;17168;49.164;9.060;2023-08-07T12:57:32;15.80;99.90
30379;DHT22;17168;49.164;9.060;2023-08-07T13:00:08;16.00;99.90
30379;DHT22;17168;49.164;9.060;2023-08-07T13:02:46;16.10;99.90
30379;DHT22;17168;49.164;9.060;2023-08-07T13:05:25;16.40;99.90
30379;DHT22;17168;49.164;9.060;2023-08-07T13:08:00;16.70;99.90
30379;DHT22;17168;49.164;9.060;2023-08-07T13:10:35;17.00;99.90
30379;DHT22;17168;49.164;9.060;2023-08-07T13:13:08;17.30;99.50
30379;DHT22;17168;49.164;9.060;2023-08-07T13:15:40;17.60;94.50
30379;DHT22;17168;49.164;9.060;2023-08-07T13:18:15;17.70;91.40
30379;DHT22;17168;49.164;9.060;2023-08-07T13:20:48;17.70;91.50
30379;DHT22;17168;49.164;9.060;2023-08-07T13:23:20;17.80;91.80
30379;DHT22;17168;49.164;9.060;2023-08-07T13:25:56;17.80;88.20
30379;DHT22;17168;49.164;9.060;2023-08-07T13:28:29;17.90;86.80
30379;DHT22;17168;49.164;9.060;2023-08-07T13:31:02;18.00;86.90
30379;DHT22;17168;49.164;9.060;2023-08-07T13:33:34;18.10;90.00
30379;DHT22;17168;49.164;9.060;2023-08-07T13:36:06;18.20;86.80
30379;DHT22;17168;49.164;9.060;2023-08-07T13:38:39;18.30;88.00
30379;DHT22;17168;49.164;9.060;2023-08-07T13:41:14;18.40;87.50
30379;DHT22;17168;49.164;9.060;2023-08-07T13:43:46;18.60;83.10
30379;DHT22;17168;49.164;9.060;2023-08-07T13:46:18;18.80;82.70
30379;DHT22;17168;49.164;9.060;2023-08-07T13:48:54;18.90;82.40
30379;DHT22;17168;49.164;9.060;2023-08-07T13:51:26;19.00;80.10
30379;DHT22;17168;49.164;9.060;2023-08-07T13:53:58;19.10;78.40
30379;DHT22;17168;49.164;9.060;2023-08-07T13:56:35;19.10;76.40
30379;DHT22;17168;49.164;9.060;2023-08-07T13:59:07;19.10;75.60
30379;DHT22;17168;49.164;9.060;2023-08-07T14:01:41;19.10;75.40
30379;DHT22;17168;49.164;9.060;2023-08-07T14:04:13;19.10;76.50
30379;DHT22;17168;49.164;9.060;2023-08-07T14:06:46;19.10;76.40
30379;DHT22;17168;49.164;9.060;2023-08-07T14:09:18;19.20;78.30
30379;DHT22;17168;49.164;9.060;2023-08-07T14:11:56;19.10;76.50
30379;DHT22;17168;49.164;9.060;2023-08-07T14:14:29;19.10;75.20
30379;DHT22;17168;49.164;9.060;2023-08-07T14:17:02;19.10;77.10
30379;DHT22;17168;49.164;9.060;2023-08-07T14:19:34;19.00;76.00
30379;DHT22;17168;49.164;9.060;2023-08-07T14:22:06;19.00;75.70
30379;DHT22;17168;49.164;9.060;2023-08-07T14:24:38;18.90;75.70
30379;DHT22;17168;49.164;9.060;2023-08-07T14:27:13;18.80;76.50
30379;DHT22;17168;49.164;9.060;2023-08-07T14:29:45;18.80;77.60
30379;DHT22;17168;49.164;9.060;2023-08-07T14:32:18;18.90;78.20
30379;DHT22;17168;49.164;9.060;2023-08-07T14:34:51;18.90;76.60
30379;DHT22;17168;49.164;9.060;2023-08-07T14:37:24;19.00;76.00
30379;DHT22;17168;49.164;9.060;2023-08-07T14:39:56;19.10;75.30
30379;DHT22;17168;49.164;9.060;2023-08-07T14:42:31;19.20;75.50
30379;DHT22;17168;49.164;9.060;2023-08-07T14:45:04;19.20;76.50
30379;DHT22;17168;49.164;9.060;2023-08-07T14:47:36;19.20;77.30
30379;DHT22;17168;49.164;9.060;2023-08-07T14:50:09;19.20;74.90
30379;DHT22;17168;49.164;9.060;2023-08-07T14:52:41;19.20;74.80
30379;DHT22;17168;49.164;9.060;2023-08-07T14:55:14;19.20;75.10
30379;DHT22;17168;49.164;9.060;2023-08-07T14:57:48;19.20;74.90
30379;DHT22;17168;49.164;9.060;2023-08-07T15:00:21;19.10;72.70
30379;DHT22;17168;49.164;9.060;2023-08-07T15:02:53;19.20;73.40
30379;DHT22;17168;49.164;9.060;2023-08-07T15:05:26;19.20;75.00
30379;DHT22;17168;49.164;9.060;2023-08-07T15:08:00;19.30;75.00
30379;DHT22;17168;49.164;9.060;2023-08-07T15:10:32;19.50;75.90
30379;DHT22;17168;49.164;9.060;2023-08-07T15:13:07;19.70;76.00
30379;DHT22;17168;49.164;9.060;2023-08-07T15:15:39;19.80;74.40
30379;DHT22;17168;49.164;9.060;2023-08-07T15:21:53;19.90;76.20
30379;DHT22;17168;49.164;9.060;2023-08-07T15:45:08;20.50;67.90
30379;DHT22;17168;49.164;9.060;2023-08-07T15:47:43;20.60;67.60
30379;DHT22;17168;49.164;9.060;2023-08-07T15:54:08;20.80;64.70
30379;DHT22;17168;49.164;9.060;2023-08-07T15:56:54;20.90;63.40
30379;DHT22;17168;49.164;9.060;2023-08-07T15:59:34;21.00;64.70
30379;DHT22;17168;49.164;9.060;2023-08-07T16:02:11;21.00;64.10
30379;DHT22;17168;49.164;9.060;2023-08-07T16:04:45;20.90;64.60
30379;DHT22;17168;49.164;9.060;2023-08-07T16:07:22;20.80;65.30
30379;DHT22;17168;49.164;9.060;2023-08-07T16:09:55;20.80;65.50
30379;DHT22;17168;49.164;9.060;2023-08-07T16:12:29;20.60;64.50
30379;DHT22;17168;49.164;9.060;2023-08-07T16:15:05;20.60;65.80
30379;DHT22;17168;49.164;9.060;2023-08-07T17:21:00;19.50;69.60
30379;DHT22;17168;49.164;9.060;2023-08-07T17:23:35;19.50;68.90
30379;DHT22;17168;49.164;9.060;2023-08-07T17:30:03;19.40;68.80
30379;DHT22;17168;49.164;9.060;2023-08-07T17:33:05;19.40;68.10
30379;DHT22;17168;49.164;9.060;2023-08-07T17:36:06;19.30;68.00
30379;DHT22;17168;49.164;9.060;2023-08-07T17:42:00;19.20;68.60
30379;DHT22;17168;49.164;9.060;2023-08-07T17:44:43;19.10;69.60
30379;DHT22;17168;49.164;9.060;2023-08-07T17:47:16;19.10;69.70
30379;DHT22;17168;49.164;9.060;2023-08-07T17:49:48;19.10;69.60